createdAt,value
2019-02-15T00:01:53.850Z,98950.52
2019-02-15T00:04:26.081Z,98950.16
2019-02-15T00:06:57.571Z,98944.30
2019-02-15T00:09:29.439Z,98937.72
2019-02-15T00:12:01.093Z,98942.78
2019-02-15T00:14:50.278Z,98931.70
2019-02-15T00:17:39.880Z,98937.30
2019-02-15T00:20:16.998Z,98939.88
2019-02-15T00:22:48.306Z,98933.85
2019-02-15T00:25:19.925Z,98931.70
2019-02-15T00:27:51.458Z,98936.38
2019-02-15T00:30:23.012Z,98933.70
2019-02-15T00:32:56.191Z,98928.52
2019-02-15T00:35:27.697Z,98925.98
2019-02-15T00:37:59.330Z,98935.58
2019-02-15T00:40:30.652Z,98937.58
2019-02-15T00:43:01.926Z,98929.70
2019-02-15T00:45:38.400Z,98932.19
2019-02-15T00:48:13.852Z,98934.23
2019-02-15T00:51:09.866Z,98930.46
2019-02-15T00:53:46.633Z,98930.36
2019-02-15T00:56:27.603Z,98931.41
2019-02-15T00:59:13.314Z,98930.89
2019-02-15T01:02:09.503Z,98930.05
2019-02-15T01:04:49.335Z,98921.82
2019-02-15T01:07:39.747Z,98937.02
2019-02-15T01:10:20.383Z,98938.12
2019-02-15T01:12:56.028Z,98933.86
2019-02-15T01:15:27.456Z,98932.25
2019-02-15T01:17:58.693Z,98937.57
2019-02-15T01:20:29.906Z,98933.39
2019-02-15T01:23:01.589Z,98944.03
2019-02-15T01:25:39.995Z,98946.06
2019-02-15T01:28:23.323Z,98950.47
2019-02-15T01:31:22.358Z,98950.98
2019-02-15T01:34:06.764Z,98950.09
2019-02-15T01:37:00.116Z,98953.00
2019-02-15T01:39:48.613Z,98946.80
2019-02-15T01:42:37.773Z,98947.45
2019-02-15T01:45:22.528Z,98939.46
2019-02-15T01:47:53.748Z,98940.63
2019-02-15T01:50:25.455Z,98933.79
2019-02-15T01:52:57.098Z,98927.58
2019-02-15T01:55:28.428Z,98917.96
2019-02-15T01:57:59.718Z,98927.21
2019-02-15T02:00:33.882Z,98926.45
2019-02-15T02:03:05.548Z,98922.90
2019-02-15T02:05:36.851Z,98921.25
2019-02-15T02:08:10.208Z,98924.27
2019-02-15T02:10:41.780Z,98924.80
2019-02-15T02:13:13.124Z,98917.45
2019-02-15T02:15:44.644Z,98912.41
2019-02-15T02:18:16.258Z,98915.44
2019-02-15T02:20:47.665Z,98904.81
2019-02-15T02:23:19.026Z,98899.49
2019-02-15T02:25:52.547Z,98909.88
2019-02-15T02:28:23.901Z,98907.35
2019-02-15T02:30:55.908Z,98909.26
2019-02-15T02:33:27.183Z,98911.52
2019-02-15T02:35:58.481Z,98908.59
2019-02-15T02:38:30.205Z,98908.85
2019-02-15T02:41:01.608Z,98907.98
2019-02-15T02:43:33.296Z,98907.09
2019-02-15T02:46:04.662Z,98906.34
2019-02-15T02:48:36.024Z,98902.92
2019-02-15T02:51:07.285Z,98909.12
2019-02-15T02:53:38.804Z,98906.57
2019-02-15T02:56:10.343Z,98908.86
2019-02-15T02:58:41.540Z,98906.48
2019-02-15T03:01:12.933Z,98905.06
2019-02-15T03:03:44.328Z,98908.88
2019-02-15T03:06:15.878Z,98909.61
2019-02-15T03:08:47.074Z,98915.26
2019-02-15T03:11:18.776Z,98912.11
2019-02-15T03:13:49.960Z,98915.10
2019-02-15T03:16:21.207Z,98914.34
2019-02-15T03:18:52.421Z,98911.55
2019-02-15T03:21:23.788Z,98906.27
2019-02-15T03:23:55.396Z,98907.75
2019-02-15T03:26:26.566Z,98909.41
2019-02-15T03:28:57.808Z,98908.55
2019-02-15T03:31:29.355Z,98908.00
2019-02-15T03:34:00.935Z,98903.98
2019-02-15T03:36:58.627Z,98910.04
2019-02-15T03:39:42.722Z,98914.57
2019-02-15T03:42:15.086Z,98904.22
2019-02-15T03:44:47.433Z,98907.38
2019-02-15T03:47:25.347Z,98904.73
2019-02-15T03:49:57.502Z,98911.95
2019-02-15T03:52:28.750Z,98903.20
2019-02-15T03:55:00.017Z,98914.57
2019-02-15T03:57:31.705Z,98911.53
2019-02-15T04:00:04.810Z,98909.40
2019-02-15T04:02:36.325Z,98907.52
2019-02-15T04:05:07.854Z,98910.52
2019-02-15T04:07:39.157Z,98904.69
2019-02-15T04:10:10.872Z,98909.88
2019-02-15T04:12:42.044Z,98909.81
2019-02-15T04:15:13.587Z,98895.92
2019-02-15T04:17:44.863Z,98894.17
2019-02-15T04:20:17.443Z,98899.06
2019-02-15T04:22:48.937Z,98904.52
2019-02-15T04:25:20.189Z,98895.69
2019-02-15T04:27:51.620Z,98896.40
2019-02-15T04:30:23.137Z,98895.71
2019-02-15T04:32:54.465Z,98896.06
2019-02-15T04:35:26.048Z,98888.19
2019-02-15T04:37:57.328Z,98890.65
2019-02-15T04:40:28.633Z,98890.15
2019-02-15T04:42:59.910Z,98890.00
2019-02-15T04:45:32.223Z,98882.92
2019-02-15T04:48:03.454Z,98882.92
2019-02-15T04:50:35.274Z,98881.06
2019-02-15T04:53:06.829Z,98874.27
2019-02-15T04:55:38.198Z,98866.34
2019-02-15T04:58:09.409Z,98870.77
2019-02-15T05:00:41.081Z,98874.56
2019-02-15T05:03:12.389Z,98871.13
2019-02-15T05:05:43.935Z,98883.87
2019-02-15T05:08:15.091Z,98875.28
2019-02-15T05:10:46.456Z,98887.16
2019-02-15T05:13:17.625Z,98882.00
2019-02-15T05:15:48.838Z,98881.52
2019-02-15T05:18:20.014Z,98881.62
2019-02-15T05:20:51.645Z,98878.92
2019-02-15T05:23:22.889Z,98883.78
2019-02-15T05:25:54.073Z,98873.31
2019-02-15T05:28:25.458Z,98885.99
2019-02-15T05:30:57.629Z,98885.22
2019-02-15T05:33:29.158Z,98890.02
2019-02-15T05:36:00.417Z,98884.47
2019-02-15T05:38:31.608Z,98876.05
2019-02-15T05:41:02.791Z,98881.61
2019-02-15T05:43:34.327Z,98870.45
2019-02-15T05:46:06.216Z,98883.91
2019-02-15T05:48:37.778Z,98882.50
2019-02-15T05:51:09.029Z,98879.70
2019-02-15T05:53:40.238Z,98886.75
2019-02-15T05:56:11.488Z,98887.86
2019-02-15T05:58:43.062Z,98882.82
2019-02-15T06:01:14.707Z,98881.03
2019-02-15T06:03:45.920Z,98885.06
2019-02-15T06:06:17.132Z,98873.95
2019-02-15T06:08:48.298Z,98874.45
2019-02-15T06:11:19.804Z,98862.75
2019-02-15T06:13:52.988Z,98877.52
2019-02-15T06:16:24.370Z,98870.66
2019-02-15T06:18:55.647Z,98878.45
2019-02-15T06:21:27.216Z,98877.19
2019-02-15T06:23:58.532Z,98873.61
2019-02-15T06:26:29.707Z,98876.66
2019-02-15T06:29:00.877Z,98879.59
2019-02-15T06:31:32.444Z,98865.67
2019-02-15T06:34:03.774Z,98877.05
2019-02-15T06:36:37.434Z,98878.02
2019-02-15T06:39:10.069Z,98880.93
2019-02-15T06:41:41.325Z,98888.80
2019-02-15T06:44:14.021Z,98884.59
2019-02-15T06:46:46.266Z,98876.12
2019-02-15T06:49:17.494Z,98878.58
2019-02-15T06:51:48.651Z,98881.48
2019-02-15T06:54:20.915Z,98884.30
2019-02-15T06:56:52.090Z,98891.40
2019-02-15T06:59:42.185Z,98890.65
2019-02-15T07:02:21.820Z,98892.05
2019-02-15T07:05:11.904Z,98895.97
2019-02-15T07:07:43.084Z,98898.37
2019-02-15T07:10:16.264Z,98903.15
2019-02-15T07:12:47.526Z,98891.23
2019-02-15T07:15:19.129Z,98892.29
2019-02-15T07:17:50.674Z,98881.80
2019-02-15T07:20:22.298Z,98889.34
2019-02-15T07:22:53.884Z,98886.95
2019-02-15T07:25:25.452Z,98880.98
2019-02-15T07:27:56.962Z,98886.83
2019-02-15T07:30:28.150Z,98878.98
2019-02-15T07:32:59.288Z,98876.58
2019-02-15T07:35:30.743Z,98879.56
2019-02-15T07:38:02.142Z,98879.38
2019-02-15T07:40:33.300Z,98880.83
2019-02-15T07:43:04.963Z,98871.84
2019-02-15T07:45:42.595Z,98876.05
2019-02-15T07:48:09.058Z,98880.66
2019-02-15T07:50:40.215Z,98882.72
2019-02-15T07:53:11.544Z,98878.00
2019-02-15T07:55:42.767Z,98880.89
2019-02-15T07:58:13.936Z,98878.80
2019-02-15T08:00:45.415Z,98878.38
2019-02-15T08:03:16.583Z,98884.55
2019-02-15T08:05:48.703Z,98880.89
2019-02-15T08:08:20.238Z,98891.27
2019-02-15T08:10:51.723Z,98879.53
2019-02-15T08:13:23.288Z,98874.42
2019-02-15T08:15:54.661Z,98880.34
2019-02-15T08:18:25.835Z,98880.97
2019-02-15T08:20:57.003Z,98873.47
2019-02-15T08:23:28.178Z,98873.37
2019-02-15T08:25:59.705Z,98876.03
2019-02-15T08:28:30.948Z,98863.79
2019-02-15T08:31:02.433Z,98870.92
2019-02-15T08:33:33.592Z,98864.96
2019-02-15T08:36:04.823Z,98863.29
2019-02-15T08:38:35.995Z,98864.01
2019-02-15T08:41:07.138Z,98859.13
2019-02-15T08:43:39.410Z,98869.76
2019-02-15T08:46:10.637Z,98864.23
2019-02-15T08:48:46.263Z,98858.08
2019-02-15T08:51:15.236Z,98852.02
2019-02-15T08:53:46.533Z,98856.21
2019-02-15T08:56:17.982Z,98842.53
2019-02-15T08:58:49.545Z,98858.45
2019-02-15T09:01:20.879Z,98853.13
2019-02-15T09:03:52.088Z,98858.52
2019-02-15T09:06:23.487Z,98858.30
2019-02-15T09:08:55.288Z,98858.37
2019-02-15T09:11:26.547Z,98860.81
2019-02-15T09:13:57.716Z,98871.56
2019-02-15T09:16:29.292Z,98868.69
2019-02-15T09:19:00.909Z,98865.13
2019-02-15T09:21:32.145Z,98867.55
2019-02-15T09:24:04.059Z,98866.69
2019-02-15T09:26:35.646Z,98865.36
2019-02-15T09:29:09.924Z,98870.37
2019-02-15T09:31:41.229Z,98875.03
2019-02-15T09:34:12.567Z,98874.36
2019-02-15T09:36:44.139Z,98883.18
2019-02-15T09:39:15.793Z,98875.22
2019-02-15T09:41:47.044Z,98873.75
2019-02-15T09:44:18.528Z,98869.52
2019-02-15T09:46:49.791Z,98867.15
2019-02-15T09:49:22.220Z,98862.80
2019-02-15T09:51:55.557Z,98865.48
2019-02-15T09:54:26.840Z,98869.20
2019-02-15T09:56:58.328Z,98866.55
2019-02-15T09:59:29.504Z,98866.65
2019-02-15T10:02:00.848Z,98863.09
2019-02-15T10:04:32.375Z,98870.17
2019-02-15T10:07:03.681Z,98866.47
2019-02-15T10:09:34.939Z,98869.06
2019-02-15T10:12:06.282Z,98866.39
2019-02-15T10:14:37.883Z,98869.11
2019-02-15T10:17:09.161Z,98859.53
2019-02-15T10:19:40.745Z,98865.19
2019-02-15T10:22:11.909Z,98861.16
2019-02-15T10:24:43.746Z,98871.44
2019-02-15T10:27:15.111Z,98868.80
2019-02-15T10:29:46.653Z,98863.17
2019-02-15T10:32:18.167Z,98856.71
2019-02-15T10:34:50.332Z,98857.00
2019-02-15T10:37:21.885Z,98854.78
2019-02-15T10:39:53.119Z,98847.84
2019-02-15T10:42:26.004Z,98839.02
2019-02-15T10:44:57.206Z,98846.94
2019-02-15T10:47:28.645Z,98840.81
2019-02-15T10:50:00.327Z,98827.84
2019-02-15T10:52:31.489Z,98828.55
2019-02-15T10:55:02.816Z,98822.52
2019-02-15T10:57:34.092Z,98820.97
2019-02-15T11:00:06.870Z,98822.66
2019-02-15T11:02:39.159Z,98813.38
2019-02-15T11:05:10.697Z,98820.52
2019-02-15T11:07:41.931Z,98825.88
2019-02-15T11:10:13.381Z,98828.44
2019-02-15T11:12:44.805Z,98820.23
2019-02-15T11:15:16.353Z,98829.38
2019-02-15T11:17:48.129Z,98818.45
2019-02-15T11:20:19.759Z,98820.94
2019-02-15T11:22:51.166Z,98812.53
2019-02-15T11:25:22.479Z,98806.13
2019-02-15T11:27:53.908Z,98796.95
2019-02-15T11:30:25.623Z,98797.17
2019-02-15T11:32:57.012Z,98783.31
2019-02-15T11:35:28.698Z,98788.61
2019-02-15T11:37:59.903Z,98786.97
2019-02-15T11:40:31.428Z,98785.43
2019-02-15T11:43:02.763Z,98780.22
2019-02-15T11:45:33.971Z,98779.88
2019-02-15T11:48:05.283Z,98780.77
2019-02-15T11:50:36.688Z,98777.87
2019-02-15T11:53:08.387Z,98771.53
2019-02-15T11:55:39.707Z,98771.74
2019-02-15T11:58:11.388Z,98770.55
2019-02-15T12:00:43.390Z,98764.52
2019-02-15T12:03:14.660Z,98764.63
2019-02-15T12:05:46.008Z,98763.22
2019-02-15T12:08:17.988Z,98756.82
2019-02-15T12:10:49.810Z,98758.75
2019-02-15T12:13:21.442Z,98756.67
2019-02-15T12:15:52.846Z,98750.33
2019-02-15T12:18:24.177Z,98736.45
2019-02-15T12:20:55.400Z,98738.31
2019-02-15T12:23:28.485Z,98738.88
2019-02-15T12:26:00.053Z,98736.68
2019-02-15T12:28:31.522Z,98723.28
2019-02-15T12:31:02.896Z,98726.20
2019-02-15T12:33:34.286Z,98718.88
2019-02-15T12:36:05.728Z,98715.03
2019-02-15T12:38:37.127Z,98715.66
2019-02-15T12:41:08.390Z,98703.20
2019-02-15T12:43:40.123Z,98701.25
2019-02-15T12:46:11.518Z,98700.20
2019-02-15T12:48:42.842Z,98703.95
2019-02-15T12:51:14.411Z,98701.14
2019-02-15T12:53:45.748Z,98699.45
2019-02-15T12:56:17.089Z,98692.02
2019-02-15T12:58:48.522Z,98686.06
2019-02-15T13:01:20.231Z,98683.50
2019-02-15T13:03:51.692Z,98684.23
2019-02-15T13:06:28.778Z,98680.78
2019-02-15T13:08:55.870Z,98680.15
2019-02-15T13:11:27.165Z,98672.83
2019-02-15T13:13:58.568Z,98665.33
2019-02-15T13:16:30.196Z,98661.03
2019-02-15T13:19:01.588Z,98661.50
2019-02-15T13:21:32.759Z,98668.78
2019-02-15T13:24:04.237Z,98659.84
2019-02-15T13:26:35.802Z,98662.48
2019-02-15T13:29:07.062Z,98658.91
2019-02-15T13:31:38.359Z,98658.00
2019-02-15T13:34:09.592Z,98653.68
2019-02-15T13:36:41.037Z,98648.45
2019-02-15T13:39:12.511Z,98644.69
2019-02-15T13:41:43.866Z,98642.94
2019-02-15T13:44:15.018Z,98633.34
2019-02-15T13:46:46.261Z,98640.72
2019-02-15T13:49:17.486Z,98630.32
2019-02-15T13:51:48.765Z,98635.54
2019-02-15T13:54:20.018Z,98632.91
2019-02-15T13:56:51.380Z,98634.64
2019-02-15T13:59:22.780Z,98628.86
2019-02-15T14:01:53.998Z,98617.12
2019-02-15T14:04:26.070Z,98617.84
2019-02-15T14:06:58.503Z,98613.46
2019-02-15T14:09:30.114Z,98610.11
2019-02-15T14:12:03.049Z,98605.19
2019-02-15T14:14:34.463Z,98602.14
2019-02-15T14:17:06.216Z,98600.78
2019-02-15T14:19:37.640Z,98602.84
2019-02-15T14:22:09.087Z,98598.63
2019-02-15T14:24:40.314Z,98605.17
2019-02-15T14:27:12.341Z,98607.05
2019-02-15T14:29:43.827Z,98601.42
2019-02-15T14:32:15.145Z,98595.69
2019-02-15T14:34:46.594Z,98603.05
2019-02-15T14:37:17.910Z,98594.16
2019-02-15T14:39:49.357Z,98593.95
2019-02-15T14:42:20.720Z,98587.36
2019-02-15T14:44:52.451Z,98586.72
2019-02-15T14:47:23.970Z,98592.36
2019-02-15T14:49:55.327Z,98595.27
2019-02-15T14:52:26.942Z,98587.95
2019-02-15T14:54:58.749Z,98587.61
2019-02-15T14:57:30.429Z,98592.81
2019-02-15T15:00:01.718Z,98580.74
2019-02-15T15:02:33.546Z,98576.84
2019-02-15T15:05:05.174Z,98581.98
2019-02-15T15:07:36.488Z,98576.70
2019-02-15T15:10:08.987Z,98574.48
2019-02-15T15:12:40.498Z,98580.05
2019-02-15T15:15:13.030Z,98586.84
2019-02-15T15:17:44.517Z,98579.37
2019-02-15T15:20:15.979Z,98578.70
2019-02-15T15:22:47.764Z,98579.27
2019-02-15T15:25:19.379Z,98578.34
2019-02-15T15:27:51.011Z,98574.45
2019-02-15T15:30:22.284Z,98561.73
2019-02-15T15:32:53.629Z,98569.47
2019-02-15T15:35:25.113Z,98568.69
2019-02-15T15:37:56.508Z,98574.84
2019-02-15T15:40:28.033Z,98571.77
2019-02-15T15:42:59.706Z,98566.45
2019-02-15T15:45:31.195Z,98563.67
2019-02-15T15:48:02.615Z,98567.61
2019-02-15T15:50:34.087Z,98563.63
2019-02-15T15:53:07.819Z,98571.28
2019-02-15T15:55:38.949Z,98565.58
2019-02-15T15:58:10.626Z,98568.41
2019-02-15T16:00:42.245Z,98566.86
2019-02-15T16:03:13.792Z,98575.20
2019-02-15T16:05:45.844Z,98571.31
2019-02-15T16:08:17.223Z,98570.13
2019-02-15T16:10:48.669Z,98570.33
2019-02-15T16:13:20.174Z,98574.66
2019-02-15T16:15:52.163Z,98578.07
2019-02-15T16:18:31.891Z,98572.11
2019-02-15T16:20:56.437Z,98574.45
2019-02-15T16:23:27.831Z,98578.13
2019-02-15T16:26:00.311Z,98577.20
2019-02-15T16:28:31.745Z,98584.73
2019-02-15T16:31:03.445Z,98588.70
2019-02-15T16:33:34.819Z,98588.33
2019-02-15T16:36:06.195Z,98588.32
2019-02-15T16:38:37.593Z,98585.84
2019-02-15T16:41:08.927Z,98580.12
2019-02-15T16:43:40.541Z,98591.91
2019-02-15T16:46:11.947Z,98588.68
2019-02-15T16:48:43.311Z,98591.41
2019-02-15T16:51:14.698Z,98588.72
2019-02-15T16:53:45.908Z,98597.13
2019-02-15T16:56:17.601Z,98587.28
2019-02-15T16:58:49.132Z,98585.02
2019-02-15T17:01:20.569Z,98585.06
2019-02-15T17:03:52.015Z,98585.85
2019-02-15T17:06:23.718Z,98590.11
2019-02-15T17:08:55.072Z,98591.61
2019-02-15T17:11:26.365Z,98592.01
2019-02-15T17:13:57.573Z,98589.23
2019-02-15T17:16:28.837Z,98591.29
2019-02-15T17:19:00.490Z,98597.20
2019-02-15T17:21:31.611Z,98597.44
2019-02-15T17:24:03.122Z,98594.64
2019-02-15T17:26:34.241Z,98599.11
2019-02-15T17:29:05.514Z,98601.52
2019-02-15T17:31:36.817Z,98601.53
2019-02-15T17:34:07.976Z,98594.58
2019-02-15T17:36:39.176Z,98603.28
2019-02-15T17:39:10.601Z,98601.52
2019-02-15T17:41:41.827Z,98604.30
2019-02-15T17:44:12.986Z,98606.92
2019-02-15T17:46:44.233Z,98600.05
2019-02-15T17:49:15.873Z,98603.45
2019-02-15T17:51:47.048Z,98594.50
2019-02-15T17:54:18.385Z,98603.78
2019-02-15T17:56:49.650Z,98605.64
2019-02-15T17:59:20.864Z,98601.30
2019-02-15T18:01:52.017Z,98600.83
2019-02-15T18:04:23.168Z,98590.83
2019-02-15T18:06:54.400Z,98594.53
2019-02-15T18:09:25.529Z,98596.95
2019-02-15T18:11:56.638Z,98595.67
2019-02-15T18:14:28.099Z,98590.45
2019-02-15T18:16:59.574Z,98587.56
2019-02-15T18:19:30.677Z,98590.62
2019-02-15T18:22:03.034Z,98590.86
2019-02-15T18:24:34.677Z,98576.52
2019-02-15T18:27:05.871Z,98583.67
2019-02-15T18:29:37.604Z,98583.54
2019-02-15T18:32:09.159Z,98578.44
2019-02-15T18:34:40.264Z,98580.61
2019-02-15T18:37:11.429Z,98582.39
2019-02-15T18:39:42.658Z,98587.83
2019-02-15T18:42:13.884Z,98583.86
2019-02-15T18:44:45.015Z,98569.60
2019-02-15T18:47:16.224Z,98571.34
2019-02-15T18:49:47.405Z,98572.62
2019-02-15T18:52:18.784Z,98568.72
2019-02-15T18:54:49.927Z,98568.46
2019-02-15T18:57:21.307Z,98574.94
2019-02-15T18:59:52.408Z,98571.37
2019-02-15T19:02:23.576Z,98574.42
2019-02-15T19:04:54.759Z,98569.56
2019-02-15T19:07:26.003Z,98562.67
2019-02-15T19:09:57.405Z,98570.00
2019-02-15T19:12:29.599Z,98560.77
2019-02-15T19:15:00.767Z,98557.59
2019-02-15T19:17:32.175Z,98557.57
2019-02-15T19:20:03.468Z,98548.19
2019-02-15T19:22:35.767Z,98548.01
2019-02-15T19:25:08.992Z,98550.09
2019-02-15T19:27:40.195Z,98548.50
2019-02-15T19:30:15.389Z,98550.63
2019-02-15T19:32:46.662Z,98558.58
2019-02-15T19:35:17.855Z,98559.59
2019-02-15T19:37:48.986Z,98561.13
2019-02-15T19:40:20.638Z,98552.33
2019-02-15T19:42:53.161Z,98547.73
2019-02-15T19:45:24.929Z,98541.18
2019-02-15T19:47:58.320Z,98536.77
2019-02-15T19:50:30.652Z,98544.63
2019-02-15T19:53:02.201Z,98543.73
2019-02-15T19:55:33.380Z,98540.48
2019-02-15T19:58:04.551Z,98542.21
2019-02-15T20:00:36.125Z,98536.57
2019-02-15T20:03:07.724Z,98539.31
2019-02-15T20:05:38.867Z,98544.22
2019-02-15T20:08:11.099Z,98537.34
2019-02-15T20:10:43.446Z,98530.06
2019-02-15T20:13:14.603Z,98526.05
2019-02-15T20:15:45.817Z,98523.77
2019-02-15T20:18:17.079Z,98527.85
2019-02-15T20:20:48.290Z,98515.65
2019-02-15T20:23:19.609Z,98523.93
2019-02-15T20:25:50.897Z,98518.02
2019-02-15T20:28:22.420Z,98514.13
2019-02-15T20:30:53.600Z,98506.80
2019-02-15T20:33:25.124Z,98505.63
2019-02-15T20:35:56.366Z,98511.32
2019-02-15T20:38:27.617Z,98513.98
2019-02-15T20:40:58.738Z,98518.95
2019-02-15T20:43:29.955Z,98526.33
2019-02-15T20:46:01.073Z,98528.97
2019-02-15T20:48:32.265Z,98526.81
2019-02-15T20:51:03.737Z,98530.13
2019-02-15T20:53:35.605Z,98529.05
2019-02-15T20:56:07.020Z,98527.34
2019-02-15T20:58:38.204Z,98524.61
2019-02-15T21:01:09.881Z,98517.89
2019-02-15T21:03:41.100Z,98516.70
2019-02-15T21:06:12.256Z,98520.56
2019-02-15T21:08:43.499Z,98517.47
2019-02-15T21:11:14.695Z,98518.70
2019-02-15T21:13:45.842Z,98510.59
2019-02-15T21:16:17.094Z,98502.60
2019-02-15T21:18:48.264Z,98514.56
2019-02-15T21:21:19.540Z,98503.17
2019-02-15T21:23:50.674Z,98504.94
2019-02-15T21:26:21.869Z,98496.50
2019-02-15T21:28:53.090Z,98493.73
2019-02-15T21:31:24.202Z,98498.05
2019-02-15T21:33:55.376Z,98488.41
2019-02-15T21:36:26.627Z,98492.95
2019-02-15T21:38:58.125Z,98491.56
2019-02-15T21:41:29.313Z,98486.47
2019-02-15T21:44:01.589Z,98489.59
2019-02-15T21:46:32.947Z,98489.67
2019-02-15T21:49:04.279Z,98481.22
2019-02-15T21:51:35.754Z,98483.49
2019-02-15T21:54:06.976Z,98483.45
2019-02-15T21:56:38.109Z,98489.31
2019-02-15T21:59:09.322Z,98483.78
2019-02-15T22:01:41.136Z,98468.59
2019-02-15T22:04:12.620Z,98475.61
2019-02-15T22:06:43.761Z,98468.36
2019-02-15T22:09:15.288Z,98474.64
2019-02-15T22:11:46.560Z,98464.77
2019-02-15T22:14:17.703Z,98470.77
2019-02-15T22:16:49.083Z,98466.84
2019-02-15T22:19:20.197Z,98468.53
2019-02-15T22:21:51.330Z,98468.73
2019-02-15T22:24:22.772Z,98455.52
2019-02-15T22:26:54.250Z,98466.88
2019-02-15T22:29:25.384Z,98459.43
2019-02-15T22:31:56.581Z,98459.02
2019-02-15T22:34:27.747Z,98455.30
2019-02-15T22:36:59.041Z,98457.96
2019-02-15T22:39:30.160Z,98449.44
2019-02-15T22:42:01.301Z,98447.86
2019-02-15T22:44:32.566Z,98459.95
2019-02-15T22:47:03.936Z,98453.58
2019-02-15T22:49:43.119Z,98450.03
2019-02-15T22:52:07.966Z,98453.86
2019-02-15T22:54:39.163Z,98454.70
2019-02-15T22:57:10.289Z,98450.33
2019-02-15T22:59:41.406Z,98449.21
2019-02-15T23:02:13.381Z,98453.21
2019-02-15T23:04:44.709Z,98452.86
2019-02-15T23:07:16.186Z,98452.05
2019-02-15T23:09:47.409Z,98456.85
2019-02-15T23:12:18.569Z,98455.16
2019-02-15T23:14:49.705Z,98454.02
2019-02-15T23:17:21.093Z,98458.64
2019-02-15T23:19:52.270Z,98455.02
2019-02-15T23:22:23.430Z,98452.86
2019-02-15T23:24:54.552Z,98451.05
2019-02-15T23:27:25.684Z,98450.25
2019-02-15T23:29:57.442Z,98451.71
2019-02-15T23:32:29.068Z,98452.15
2019-02-15T23:35:00.327Z,98450.22
2019-02-15T23:37:31.571Z,98452.09
2019-02-15T23:40:03.151Z,98446.51
2019-02-15T23:42:34.647Z,98442.55
2019-02-15T23:45:06.203Z,98445.63
2019-02-15T23:47:37.370Z,98443.33
2019-02-15T23:50:09.267Z,98449.45
2019-02-15T23:52:40.957Z,98439.59
2019-02-15T23:55:12.501Z,98442.82
2019-02-15T23:57:43.621Z,98445.22
